createdAt,value
2018-07-19T00:01:49.801Z,3.70
2018-07-19T00:04:18.863Z,3.63
2018-07-19T00:06:47.814Z,3.70
2018-07-19T00:09:16.817Z,4.10
2018-07-19T00:11:45.769Z,3.83
2018-07-19T00:14:14.732Z,4.10
2018-07-19T00:16:43.757Z,3.80
2018-07-19T00:19:12.730Z,3.70
2018-07-19T00:21:41.837Z,3.77
2018-07-19T00:24:11.169Z,3.80
2018-07-19T00:26:40.194Z,3.63
2018-07-19T00:29:09.108Z,3.87
2018-07-19T00:31:38.182Z,3.63
2018-07-19T00:34:07.202Z,3.63
2018-07-19T00:36:36.202Z,3.80
2018-07-19T00:39:06.511Z,3.60
2018-07-19T00:41:35.542Z,3.53
2018-07-19T00:44:04.759Z,3.97
2018-07-19T00:46:33.912Z,3.67
2018-07-19T00:49:02.855Z,3.50
2018-07-19T00:51:31.820Z,3.40
2018-07-19T00:54:00.818Z,3.40
2018-07-19T00:56:29.772Z,3.90
2018-07-19T00:58:58.723Z,3.50
2018-07-19T01:01:27.776Z,3.57
2018-07-19T01:03:56.801Z,3.50
2018-07-19T01:06:25.783Z,3.40
2018-07-19T01:08:54.782Z,3.57
2018-07-19T01:11:23.834Z,3.33
2018-07-19T01:13:52.819Z,3.03
2018-07-19T01:16:21.842Z,3.47
2018-07-19T01:18:50.993Z,3.27
2018-07-19T01:21:20.021Z,2.80
2018-07-19T01:23:49.000Z,3.27
2018-07-19T01:26:17.909Z,3.20
2018-07-19T01:28:46.837Z,2.80
2018-07-19T01:31:16.177Z,3.33
2018-07-19T01:33:45.273Z,3.30
2018-07-19T01:36:14.314Z,3.23
2018-07-19T01:38:43.338Z,3.30
2018-07-19T01:41:23.345Z,3.20
2018-07-19T01:43:52.316Z,3.03
2018-07-19T01:46:21.267Z,2.97
2018-07-19T01:48:50.252Z,3.20
2018-07-19T01:51:19.296Z,3.50
2018-07-19T01:53:48.293Z,3.53
2018-07-19T01:56:17.255Z,3.63
2018-07-19T01:58:46.227Z,2.90
2018-07-19T02:01:15.151Z,3.10
2018-07-19T02:03:44.113Z,3.00
2018-07-19T02:06:13.100Z,3.30
2018-07-19T02:08:42.194Z,2.87
2018-07-19T02:11:11.184Z,3.10
2018-07-19T02:13:40.176Z,3.07
2018-07-19T02:16:09.152Z,3.03
2018-07-19T02:18:38.042Z,3.17
2018-07-19T02:21:07.090Z,2.97
2018-07-19T02:23:36.152Z,3.33
2018-07-19T02:26:05.282Z,3.03
2018-07-19T02:28:34.290Z,2.90
2018-07-19T02:31:03.346Z,3.10
2018-07-19T02:33:32.422Z,2.80
2018-07-19T02:36:01.473Z,3.07
2018-07-19T02:38:30.497Z,3.13
2018-07-19T02:40:59.549Z,3.00
2018-07-19T02:43:28.583Z,2.80
2018-07-19T02:45:57.547Z,2.83
2018-07-19T02:48:26.513Z,2.90
2018-07-19T02:50:55.427Z,3.63
2018-07-19T02:53:24.439Z,3.37
2018-07-19T02:55:53.417Z,3.50
2018-07-19T02:58:22.409Z,3.27
2018-07-19T03:00:51.360Z,3.27
2018-07-19T03:03:20.356Z,3.10
2018-07-19T03:05:49.376Z,2.93
2018-07-19T03:08:18.535Z,3.57
2018-07-19T03:10:47.555Z,3.37
2018-07-19T03:13:16.529Z,3.20
2018-07-19T03:15:45.560Z,3.30
2018-07-19T03:18:14.581Z,3.00
2018-07-19T03:20:43.629Z,3.23
2018-07-19T03:23:12.586Z,3.20
2018-07-19T03:25:41.503Z,3.60
2018-07-19T03:28:10.442Z,3.57
2018-07-19T03:30:39.437Z,3.60
2018-07-19T03:33:08.436Z,3.63
2018-07-19T03:35:37.433Z,3.13
2018-07-19T03:38:06.486Z,3.80
2018-07-19T03:40:35.472Z,3.30
2018-07-19T03:43:04.560Z,3.23
2018-07-19T03:45:33.544Z,3.67
2018-07-19T03:48:02.488Z,3.67
2018-07-19T03:50:31.751Z,3.60
2018-07-19T03:53:00.784Z,3.43
2018-07-19T03:55:29.733Z,3.63
2018-07-19T03:57:58.939Z,3.43
2018-07-19T04:00:27.933Z,3.53
2018-07-19T04:02:56.956Z,3.57
2018-07-19T04:05:26.026Z,3.37
2018-07-19T04:07:54.975Z,4.00
2018-07-19T04:10:23.950Z,3.53
2018-07-19T04:12:53.077Z,3.40
2018-07-19T04:15:22.095Z,3.50
2018-07-19T04:17:58.315Z,3.50
2018-07-19T04:20:30.312Z,3.60
2018-07-19T04:22:59.304Z,3.60
2018-07-19T04:25:28.450Z,3.23
2018-07-19T04:27:57.969Z,3.20
2018-07-19T04:30:27.075Z,3.80
2018-07-19T04:32:56.019Z,3.83
2018-07-19T04:35:25.010Z,3.40
2018-07-19T04:37:53.931Z,3.80
2018-07-19T04:40:22.980Z,3.53
2018-07-19T04:42:51.882Z,3.97
2018-07-19T04:45:21.000Z,4.03
2018-07-19T04:47:50.017Z,3.40
2018-07-19T04:50:19.021Z,3.83
2018-07-19T04:52:49.578Z,3.90
2018-07-19T04:55:18.612Z,3.60
2018-07-19T04:57:47.487Z,3.30
2018-07-19T05:00:16.685Z,3.63
2018-07-19T05:02:45.790Z,3.97
2018-07-19T05:05:14.752Z,3.50
2018-07-19T05:07:43.753Z,3.37
2018-07-19T05:10:12.667Z,3.70
2018-07-19T05:12:41.638Z,3.40
2018-07-19T05:15:10.590Z,3.57
2018-07-19T05:17:39.513Z,3.67
2018-07-19T05:20:08.608Z,3.80
2018-07-19T05:22:37.590Z,3.80
2018-07-19T05:25:06.481Z,3.67
2018-07-19T05:27:35.509Z,3.50
2018-07-19T05:30:05.202Z,3.77
2018-07-19T05:32:34.175Z,3.73
2018-07-19T05:35:03.261Z,4.00
2018-07-19T05:37:32.157Z,3.80
2018-07-19T05:40:01.103Z,4.10
2018-07-19T05:42:30.081Z,3.67
2018-07-19T05:44:59.056Z,3.80
2018-07-19T05:47:28.078Z,4.10
2018-07-19T05:49:56.994Z,4.03
2018-07-19T05:52:25.975Z,3.83
2018-07-19T05:54:54.889Z,3.87
2018-07-19T05:57:23.936Z,3.40
2018-07-19T05:59:52.988Z,3.80
2018-07-19T06:02:22.047Z,3.80
2018-07-19T06:04:51.029Z,3.87
2018-07-19T06:07:20.012Z,3.63
2018-07-19T06:09:49.003Z,4.30
2018-07-19T06:12:17.918Z,4.00
2018-07-19T06:14:46.940Z,4.30
2018-07-19T06:17:15.901Z,3.27
2018-07-19T06:19:44.935Z,3.40
2018-07-19T06:22:13.963Z,4.00
2018-07-19T06:24:42.876Z,3.73
2018-07-19T06:27:11.826Z,4.50
2018-07-19T06:29:40.838Z,3.87
2018-07-19T06:32:10.026Z,3.60
2018-07-19T06:34:39.031Z,3.43
2018-07-19T06:37:08.436Z,3.63
2018-07-19T06:39:37.453Z,3.50
2018-07-19T06:42:06.538Z,3.20
2018-07-19T06:44:35.718Z,3.33
2018-07-19T06:47:04.884Z,3.03
2018-07-19T06:49:33.857Z,3.13
2018-07-19T06:52:02.871Z,3.60
2018-07-19T06:54:31.747Z,2.97
2018-07-19T06:57:00.677Z,2.90
2018-07-19T06:59:29.630Z,2.77
2018-07-19T07:01:58.675Z,3.27
2018-07-19T07:04:27.652Z,3.70
2018-07-19T07:06:56.680Z,3.43
2018-07-19T07:09:25.742Z,3.00
2018-07-19T07:11:54.847Z,2.80
2018-07-19T07:14:23.887Z,2.90
2018-07-19T07:16:52.778Z,3.30
2018-07-19T07:19:21.677Z,3.00
2018-07-19T07:21:50.687Z,3.33
2018-07-19T07:24:19.841Z,2.83
2018-07-19T07:26:49.077Z,2.60
2018-07-19T07:29:18.174Z,3.10
2018-07-19T07:31:47.168Z,1.93
2018-07-19T07:34:16.197Z,2.13
2018-07-19T07:36:45.201Z,2.47
2018-07-19T07:39:14.209Z,2.53
2018-07-19T07:41:43.187Z,2.17
2018-07-19T07:44:12.261Z,2.17
2018-07-19T07:46:41.310Z,2.40
2018-07-19T07:49:10.388Z,2.60
2018-07-19T07:51:39.479Z,2.10
2018-07-19T07:54:08.523Z,2.40
2018-07-19T07:56:37.618Z,2.30
2018-07-19T07:59:06.648Z,1.97
2018-07-19T08:01:35.661Z,1.83
2018-07-19T08:04:04.719Z,2.00
2018-07-19T08:06:34.041Z,2.00
2018-07-19T08:09:03.140Z,1.80
2018-07-19T08:11:32.114Z,2.03
2018-07-19T08:14:01.189Z,2.13
2018-07-19T08:16:30.180Z,1.80
2018-07-19T08:18:59.214Z,1.90
2018-07-19T08:21:28.296Z,1.83
2018-07-19T08:23:57.208Z,1.90
2018-07-19T08:26:26.092Z,1.93
2018-07-19T08:28:55.131Z,2.30
2018-07-19T08:31:24.232Z,2.10
2018-07-19T08:33:53.494Z,1.80
2018-07-19T08:36:22.530Z,1.93
2018-07-19T08:38:51.713Z,1.73
2018-07-19T08:41:20.754Z,1.90
2018-07-19T08:43:49.819Z,1.87
2018-07-19T08:46:18.826Z,1.80
2018-07-19T08:48:48.041Z,1.50
2018-07-19T08:51:18.449Z,1.60
2018-07-19T08:53:47.572Z,1.60
2018-07-19T08:58:45.511Z,1.60
2018-07-19T09:01:14.675Z,2.00
2018-07-19T09:03:43.727Z,1.53
2018-07-19T09:06:12.973Z,1.47
2018-07-19T09:08:42.116Z,1.63
2018-07-19T09:11:11.213Z,2.00
2018-07-19T09:13:40.279Z,1.67
2018-07-19T09:16:09.271Z,1.90
2018-07-19T09:18:38.356Z,1.60
2018-07-19T09:21:07.566Z,1.73
2018-07-19T09:23:36.703Z,1.60
2018-07-19T09:26:05.672Z,1.90
2018-07-19T09:28:34.658Z,1.60
2018-07-19T09:31:03.653Z,1.67
2018-07-19T09:33:33.140Z,1.57
2018-07-19T09:36:02.282Z,1.40
2018-07-19T09:38:31.420Z,1.50
2018-07-19T09:41:00.406Z,1.20
2018-07-19T09:43:29.606Z,1.40
2018-07-19T09:45:58.608Z,1.80
2018-07-19T09:48:28.468Z,1.60
2018-07-19T09:50:57.498Z,1.20
2018-07-19T09:53:26.526Z,1.47
2018-07-19T09:55:55.490Z,1.50
2018-07-19T09:58:24.458Z,1.33
2018-07-19T10:00:58.603Z,1.13
2018-07-19T10:03:27.792Z,1.40
2018-07-19T10:05:56.821Z,1.60
2018-07-19T10:08:25.879Z,1.13
2018-07-19T10:10:55.085Z,1.33
2018-07-19T10:13:24.311Z,1.40
2018-07-19T10:15:53.426Z,0.97
2018-07-19T10:18:22.574Z,1.30
2018-07-19T10:20:51.573Z,1.00
2018-07-19T10:23:20.557Z,1.30
2018-07-19T10:25:49.696Z,1.30
2018-07-19T10:28:18.834Z,1.17
2018-07-19T10:30:48.402Z,1.40
2018-07-19T10:33:17.397Z,1.20
2018-07-19T10:35:46.886Z,1.30
2018-07-19T10:38:15.905Z,1.20
2018-07-19T10:40:45.036Z,1.70
2018-07-19T10:43:14.027Z,1.50
2018-07-19T10:45:43.072Z,1.60
2018-07-19T10:48:12.098Z,1.70
2018-07-19T10:50:41.071Z,1.30
2018-07-19T10:53:10.204Z,1.30
2018-07-19T10:55:39.232Z,1.70
2018-07-19T10:58:08.202Z,1.50
2018-07-19T11:00:37.201Z,1.90
2018-07-19T11:03:06.289Z,1.53
2018-07-19T11:05:35.357Z,1.90
2018-07-19T11:08:04.946Z,1.67
2018-07-19T11:10:34.252Z,1.80
2018-07-19T11:13:03.278Z,1.80
2018-07-19T11:15:32.309Z,1.77
2018-07-19T11:18:01.365Z,1.50
2018-07-19T11:20:30.337Z,1.70
2018-07-19T11:22:59.320Z,1.80
2018-07-19T11:25:28.289Z,1.30
2018-07-19T11:27:57.288Z,1.63
2018-07-19T11:30:26.364Z,1.63
2018-07-19T11:32:55.422Z,1.70
2018-07-19T11:35:24.501Z,1.70
2018-07-19T11:37:54.555Z,1.73
2018-07-19T11:40:24.100Z,1.73
2018-07-19T11:42:53.102Z,1.70
2018-07-19T11:45:22.286Z,1.80
2018-07-19T11:47:51.389Z,1.63
2018-07-19T11:50:20.651Z,1.80
2018-07-19T11:52:49.705Z,1.97
2018-07-19T11:55:18.814Z,1.80
2018-07-19T11:57:47.837Z,1.93
2018-07-19T12:00:16.910Z,2.00
2018-07-19T12:02:45.898Z,1.90
2018-07-19T12:05:14.896Z,1.80
2018-07-19T12:07:43.864Z,1.80
2018-07-19T12:10:12.953Z,1.90
2018-07-19T12:12:42.003Z,1.90
2018-07-19T12:15:11.051Z,1.90
2018-07-19T12:17:40.170Z,1.80
2018-07-19T12:20:09.541Z,1.90
2018-07-19T12:22:38.594Z,1.60
2018-07-19T12:25:08.165Z,1.70
2018-07-19T12:27:37.100Z,1.70
2018-07-19T12:30:06.363Z,1.63
2018-07-19T12:32:35.716Z,1.90
2018-07-19T12:35:04.817Z,1.77
2018-07-19T12:37:33.812Z,1.93
2018-07-19T12:40:02.928Z,1.93
2018-07-19T12:42:32.393Z,1.80
2018-07-19T12:45:02.013Z,2.00
2018-07-19T12:47:31.302Z,2.10
2018-07-19T12:50:00.294Z,2.20
2018-07-19T12:52:30.445Z,2.10
2018-07-19T12:54:59.461Z,1.93
2018-07-19T12:57:28.731Z,2.00
2018-07-19T12:59:57.707Z,2.03
2018-07-19T13:02:26.850Z,1.93
2018-07-19T13:04:55.978Z,2.03
2018-07-19T13:07:25.916Z,2.07
2018-07-19T13:09:55.218Z,2.00
2018-07-19T13:12:24.949Z,2.30
2018-07-19T13:14:53.916Z,2.60
2018-07-19T13:17:23.260Z,2.40
2018-07-19T13:19:52.319Z,2.30
2018-07-19T13:22:21.459Z,2.40
2018-07-19T13:24:50.833Z,2.47
2018-07-19T13:27:20.023Z,2.17
2018-07-19T13:29:49.188Z,2.40
2018-07-19T13:32:18.278Z,2.23
2018-07-19T13:34:48.114Z,2.40
2018-07-19T13:37:17.212Z,2.50
2018-07-19T13:39:46.234Z,2.37
2018-07-19T13:42:15.185Z,2.77
2018-07-19T13:44:44.133Z,2.70
2018-07-19T13:47:13.218Z,2.40
2018-07-19T13:49:42.130Z,2.33
2018-07-19T13:52:11.179Z,2.27
2018-07-19T13:54:45.487Z,2.47
2018-07-19T13:57:14.491Z,2.73
2018-07-19T13:59:43.633Z,2.50
2018-07-19T14:02:12.845Z,2.50
2018-07-19T14:04:41.925Z,2.83
2018-07-19T14:07:10.928Z,2.77
2018-07-19T14:09:39.918Z,2.57
2018-07-19T14:12:08.852Z,1.90
2018-07-19T14:14:37.748Z,2.17
2018-07-19T14:17:06.790Z,2.80
2018-07-19T14:19:35.694Z,2.20
2018-07-19T14:22:04.603Z,2.33
2018-07-19T14:24:33.636Z,2.10
2018-07-19T14:27:02.616Z,2.60
2018-07-19T14:29:31.564Z,2.13
2018-07-19T14:32:00.575Z,2.27
2018-07-19T14:34:29.588Z,2.60
2018-07-19T14:36:58.525Z,2.20
2018-07-19T14:39:27.448Z,2.40
2018-07-19T14:41:56.336Z,2.50
2018-07-19T14:44:25.247Z,2.40
2018-07-19T14:46:54.285Z,2.50
2018-07-19T14:49:23.262Z,2.20
2018-07-19T14:51:53.054Z,2.43
2018-07-19T14:54:22.008Z,2.50
2018-07-19T14:56:51.036Z,2.40
2018-07-19T14:59:19.953Z,2.40
2018-07-19T15:01:48.990Z,2.53
2018-07-19T15:04:18.134Z,2.30
2018-07-19T15:06:47.171Z,2.30
2018-07-19T15:09:16.246Z,2.40
2018-07-19T15:11:45.465Z,2.17
2018-07-19T15:14:14.476Z,2.40
2018-07-19T15:16:43.473Z,2.30
2018-07-19T15:19:12.576Z,2.53
2018-07-19T15:21:41.630Z,2.43
2018-07-19T15:24:10.616Z,2.50
2018-07-19T15:26:39.908Z,2.47
2018-07-19T15:29:08.898Z,2.50
2018-07-19T15:31:37.955Z,2.37
2018-07-19T15:34:07.157Z,2.83
2018-07-19T15:36:36.232Z,2.70
2018-07-19T15:39:07.047Z,2.63
2018-07-19T15:41:36.128Z,2.40
2018-07-19T15:44:05.161Z,2.77
2018-07-19T15:46:34.149Z,3.00
2018-07-19T15:49:03.023Z,2.80
2018-07-19T15:51:31.946Z,2.90
2018-07-19T15:54:00.880Z,2.80
2018-07-19T15:56:29.822Z,2.80
2018-07-19T15:58:58.759Z,2.60
2018-07-19T16:01:27.803Z,2.73
2018-07-19T16:03:56.772Z,2.80
2018-07-19T16:06:25.892Z,2.70
2018-07-19T16:08:55.134Z,2.77
2018-07-19T16:11:24.045Z,2.50
2018-07-19T16:13:53.164Z,2.60
2018-07-19T16:16:22.098Z,2.50
2018-07-19T16:18:51.013Z,3.10
2018-07-19T16:21:19.977Z,2.50
2018-07-19T16:23:49.705Z,2.47
2018-07-19T16:26:18.801Z,2.53
2018-07-19T16:28:47.738Z,2.30
2018-07-19T16:31:16.814Z,2.50
2018-07-19T16:33:45.955Z,2.50
2018-07-19T16:36:14.963Z,2.60
2018-07-19T16:38:43.921Z,2.93
2018-07-19T16:41:12.811Z,2.60
2018-07-19T16:43:41.766Z,2.50
2018-07-19T16:46:11.141Z,3.00
2018-07-19T16:48:40.109Z,2.33
2018-07-19T16:51:09.057Z,2.53
2018-07-19T16:53:38.047Z,2.57
2018-07-19T16:56:07.200Z,2.37
2018-07-19T16:58:36.092Z,2.90
2018-07-19T17:01:05.043Z,2.30
2018-07-19T17:03:33.940Z,2.73
2018-07-19T17:06:02.854Z,2.50
2018-07-19T17:08:31.818Z,2.47
2018-07-19T17:11:00.713Z,2.63
2018-07-19T17:13:29.569Z,2.50
2018-07-19T17:15:58.541Z,2.50
2018-07-19T17:18:27.405Z,2.60
2018-07-19T17:20:56.220Z,2.60
2018-07-19T17:23:25.089Z,2.57
2018-07-19T17:25:54.000Z,2.77
2018-07-19T17:28:22.804Z,2.50
2018-07-19T17:30:51.749Z,2.53
2018-07-19T17:33:20.693Z,3.10
2018-07-19T17:35:49.721Z,2.80
2018-07-19T17:38:18.722Z,3.20
2018-07-19T17:40:47.640Z,3.00
2018-07-19T17:43:16.490Z,3.00
2018-07-19T17:45:45.421Z,3.00
2018-07-19T17:48:14.312Z,3.13
2018-07-19T17:50:43.184Z,3.30
2018-07-19T17:53:12.083Z,3.00
2018-07-19T17:55:41.793Z,3.10
2018-07-19T17:58:10.691Z,3.47
2018-07-19T18:00:39.628Z,3.50
2018-07-19T18:03:08.466Z,3.30
2018-07-19T18:05:37.374Z,3.43
2018-07-19T18:08:06.366Z,3.70
2018-07-19T18:10:35.205Z,3.43
2018-07-19T18:13:04.103Z,4.00
2018-07-19T18:15:32.953Z,4.17
2018-07-19T18:18:02.827Z,3.60
2018-07-19T18:20:31.728Z,3.97
2018-07-19T18:23:00.722Z,3.90
2018-07-19T18:25:29.635Z,4.30
2018-07-19T18:27:58.538Z,4.17
2018-07-19T18:30:27.456Z,3.90
2018-07-19T18:32:56.367Z,4.27
2018-07-19T18:35:25.276Z,4.40
2018-07-19T18:37:54.203Z,4.10
2018-07-19T18:40:23.080Z,4.07
2018-07-19T18:42:52.481Z,4.13
2018-07-19T18:45:21.616Z,4.27
2018-07-19T18:47:50.630Z,4.20
2018-07-19T18:50:19.685Z,4.10
2018-07-19T18:52:48.732Z,11.23
2018-07-19T18:55:18.504Z,12.10
2018-07-19T18:57:47.437Z,5.20
2018-07-19T19:00:16.407Z,4.47
2018-07-19T19:02:45.400Z,4.77
2018-07-19T19:05:14.334Z,4.33
2018-07-19T19:07:43.297Z,4.40
2018-07-19T19:10:12.286Z,4.70
2018-07-19T19:12:41.388Z,4.53
2018-07-19T19:15:10.432Z,4.70
2018-07-19T19:17:39.620Z,4.37
2018-07-19T19:20:08.557Z,5.13
2018-07-19T19:22:37.569Z,4.57
2018-07-19T19:25:23.747Z,4.30
2018-07-19T19:27:53.065Z,4.30
2018-07-19T19:30:22.010Z,3.97
2018-07-19T19:32:50.883Z,4.13
2018-07-19T19:35:19.823Z,4.20
2018-07-19T19:37:48.688Z,4.20
2018-07-19T19:40:17.850Z,4.40
2018-07-19T19:42:46.812Z,4.70
2018-07-19T19:45:15.661Z,4.93
2018-07-19T19:47:44.464Z,4.40
2018-07-19T19:50:13.947Z,4.80
2018-07-19T19:52:42.799Z,5.03
2018-07-19T19:55:13.643Z,5.00
2018-07-19T19:57:42.461Z,5.23
2018-07-19T20:00:11.308Z,5.10
2018-07-19T20:02:40.183Z,5.73
2018-07-19T20:05:09.040Z,5.57
2018-07-19T20:07:37.961Z,5.10
2018-07-19T20:10:07.336Z,5.17
2018-07-19T20:12:36.921Z,5.70
2018-07-19T20:15:06.006Z,5.10
2018-07-19T20:17:34.868Z,5.10
2018-07-19T20:20:03.854Z,4.50
2018-07-19T20:22:32.757Z,4.10
2018-07-19T20:25:01.623Z,3.60
2018-07-19T20:27:30.465Z,3.57
2018-07-19T20:29:59.276Z,3.33
2018-07-19T20:32:28.241Z,3.33
2018-07-19T20:34:57.108Z,3.30
2018-07-19T20:37:25.928Z,3.77
2018-07-19T20:39:54.860Z,3.50
2018-07-19T20:42:24.577Z,3.47
2018-07-19T20:44:53.478Z,3.37
2018-07-19T20:47:22.327Z,3.30
2018-07-19T20:49:51.267Z,2.90
2018-07-19T20:52:20.106Z,2.90
2018-07-19T20:54:48.916Z,3.00
2018-07-19T20:57:18.432Z,3.10
2018-07-19T20:59:47.269Z,3.10
2018-07-19T21:02:16.167Z,3.20
2018-07-19T21:04:45.247Z,2.93
2018-07-19T21:07:14.057Z,3.50
2018-07-19T21:09:43.014Z,2.93
2018-07-19T21:12:12.086Z,3.20
2018-07-19T21:14:41.146Z,3.00
2018-07-19T21:17:10.049Z,3.30
2018-07-19T21:19:38.893Z,2.73
2018-07-19T21:22:07.776Z,3.03
2018-07-19T21:24:36.646Z,3.53
2018-07-19T21:27:05.717Z,3.33
2018-07-19T21:29:34.531Z,3.73
2018-07-19T21:32:03.380Z,3.60
2018-07-19T21:34:32.224Z,3.80
2018-07-19T21:37:01.095Z,3.80
2018-07-19T21:39:29.982Z,3.90
2018-07-19T21:41:58.836Z,3.90
2018-07-19T21:44:27.682Z,3.87
2018-07-19T21:46:56.532Z,4.40
2018-07-19T21:49:25.428Z,4.20
2018-07-19T21:51:54.312Z,4.57
2018-07-19T21:54:23.217Z,4.50
2018-07-19T21:56:52.088Z,4.13
2018-07-19T21:59:20.906Z,4.40
2018-07-19T22:01:49.738Z,4.27
2018-07-19T22:04:18.629Z,4.10
2018-07-19T22:06:47.481Z,4.07
2018-07-19T22:09:16.344Z,4.47
2018-07-19T22:11:45.267Z,4.70
2018-07-19T22:14:14.067Z,4.50
2018-07-19T22:16:42.913Z,4.83
2018-07-19T22:19:11.750Z,5.00
2018-07-19T22:21:40.526Z,4.43
2018-07-19T22:24:09.345Z,4.40
2018-07-19T22:26:38.437Z,4.50
2018-07-19T22:29:07.243Z,4.10
2018-07-19T22:31:36.100Z,4.67
2018-07-19T22:34:05.051Z,4.10
2018-07-19T22:36:33.945Z,4.03
2018-07-19T22:39:02.851Z,4.23
2018-07-19T22:41:31.745Z,4.40
2018-07-19T22:44:00.568Z,4.33
2018-07-19T22:46:29.422Z,4.17
2018-07-19T22:48:58.245Z,4.10
2018-07-19T22:51:27.127Z,3.83
2018-07-19T22:53:55.967Z,4.10
2018-07-19T22:56:25.396Z,3.77
2018-07-19T22:58:54.203Z,4.00
2018-07-19T23:01:23.006Z,3.90
2018-07-19T23:03:51.855Z,4.07
2018-07-19T23:06:20.648Z,4.33
2018-07-19T23:08:49.440Z,3.93
2018-07-19T23:11:18.336Z,3.70
2018-07-19T23:13:47.265Z,3.90
2018-07-19T23:16:16.511Z,3.57
2018-07-19T23:18:45.425Z,3.70
2018-07-19T23:21:14.317Z,3.63
2018-07-19T23:23:43.278Z,3.40
2018-07-19T23:26:12.177Z,3.77
2018-07-19T23:28:41.162Z,3.80
2018-07-19T23:31:10.053Z,4.07
2018-07-19T23:33:39.006Z,3.80
2018-07-19T23:36:31.642Z,4.13
2018-07-19T23:39:18.718Z,4.07
2018-07-19T23:41:52.429Z,3.97
2018-07-19T23:44:25.578Z,3.90
2018-07-19T23:46:58.089Z,4.23
2018-07-19T23:49:26.956Z,4.53
2018-07-19T23:51:55.781Z,4.73
2018-07-19T23:54:24.585Z,4.60
2018-07-19T23:56:53.510Z,5.00
2018-07-19T23:59:22.338Z,5.10
